sensor_id;sensor_type;location;lat;lon;timestamp;pressure;altitude;pressure_sealevel;temperature;humidity
31162;BME280;17796;49.296;-117.656;2024-02-04T00:14:57;96100;;;5.65575;100.0
31162;BME280;17796;49.296;-117.656;2024-02-04T00:30:01;96100;;;5.66686;100.0
31162;BME280;17796;49.296;-117.656;2024-02-04T00:45:06;96100;;;5.6459;100.0
31162;BME280;17796;49.296;-117.656;2024-02-04T01:00:10;96100;;;4.80336;100.0
31162;BME280;17796;49.296;-117.656;2024-02-04T01:15:15;96100;;;5.51792;100.0
31162;BME280;17796;49.296;-117.656;2024-02-04T01:30:19;96200;;;4.89705;100.0
31162;BME280;17796;49.296;-117.656;2024-02-04T01:45:23;96200;;;5.07235;100.0
31162;BME280;17796;49.296;-117.656;2024-02-04T02:00:26;96200;;;5.12348;100.0
31162;BME280;17796;49.296;-117.656;2024-02-04T02:15:32;96200;;;4.96406;100.0
31162;BME280;17796;49.296;-117.656;2024-02-04T02:30:39;96200;;;4.93071;100.0
31162;BME280;17796;49.296;-117.656;2024-02-04T02:45:42;96200;;;4.92245;100.0
31162;BME280;17796;49.296;-117.656;2024-02-04T03:00:47;96200;;;4.71476;100.0
31162;BME280;17796;49.296;-117.656;2024-02-04T03:15:51;96200;;;4.87386;100.0
31162;BME280;17796;49.296;-117.656;2024-02-04T03:30:55;96200;;;4.57756;100.0
31162;BME280;17796;49.296;-117.656;2024-02-04T03:45:58;96200;;;4.75509;100.0
31162;BME280;17796;49.296;-117.656;2024-02-04T04:01:02;96200;;;4.86751;100.0
31162;BME280;17796;49.296;-117.656;2024-02-04T04:16:11;96200;;;4.90086;100.0
31162;BME280;17796;49.296;-117.656;2024-02-04T04:31:15;96200;;;4.45688;100.0
31162;BME280;17796;49.296;-117.656;2024-02-04T04:46:19;96200;;;4.9088;100.0
31162;BME280;17796;49.296;-117.656;2024-02-04T05:01:23;96200;;;4.90213;100.0
31162;BME280;17796;49.296;-117.656;2024-02-04T05:16:27;96200;;;4.8294;100.0
31162;BME280;17796;49.296;-117.656;2024-02-04T05:31:32;96200;;;4.88022;100.0
31162;BME280;17796;49.296;-117.656;2024-02-04T05:46:36;96200;;;4.75509;100.0
31162;BME280;17796;49.296;-117.656;2024-02-04T06:01:41;96200;;;4.75223;100.0
31162;BME280;17796;49.296;-117.656;2024-02-04T06:16:45;96200;;;4.81797;100.0
31162;BME280;17796;49.296;-117.656;2024-02-04T06:31:49;96200;;;4.81733;100.0
31162;BME280;17796;49.296;-117.656;2024-02-04T06:46:53;96200;;;4.91293;100.0
31162;BME280;17796;49.296;-117.656;2024-02-04T07:01:57;96300;;;4.60138;100.0
31162;BME280;17796;49.296;-117.656;2024-02-04T07:17:01;96200;;;4.35272;100.0
31162;BME280;17796;49.296;-117.656;2024-02-04T07:32:05;96300;;;4.36764;100.0
31162;BME280;17796;49.296;-117.656;2024-02-04T07:47:10;96300;;;4.72936;100.0
31162;BME280;17796;49.296;-117.656;2024-02-04T08:02:14;96300;;;4.64108;100.0
31162;BME280;17796;49.296;-117.656;2024-02-04T08:17:18;96300;;;4.80622;100.0
31162;BME280;17796;49.296;-117.656;2024-02-04T08:32:22;96300;;;4.76906;100.0
31162;BME280;17796;49.296;-117.656;2024-02-04T08:47:27;96300;;;4.69792;100.0
31162;BME280;17796;49.296;-117.656;2024-02-04T09:02:31;96300;;;4.50007;100.0
31162;BME280;17796;49.296;-117.656;2024-02-04T09:17:35;96300;;;4.50007;100.0
31162;BME280;17796;49.296;-117.656;2024-02-04T09:32:39;96300;;;4.39908;100.0
31162;BME280;17796;49.296;-117.656;2024-02-04T09:47:43;96300;;;4.74461;100.0
31162;BME280;17796;49.296;-117.656;2024-02-04T10:02:50;96300;;;4.63536;100.0
31162;BME280;17796;49.296;-117.656;2024-02-04T10:17:56;96300;;;4.31842;100.0
31162;BME280;17796;49.296;-117.656;2024-02-04T10:32:59;96300;;;4.49309;100.0
31162;BME280;17796;49.296;-117.656;2024-02-04T10:48:03;96300;;;4.39686;100.0
31162;BME280;17796;49.296;-117.656;2024-02-04T11:03:09;96300;;;4.38003;100.0
31162;BME280;17796;49.296;-117.656;2024-02-04T11:19:23;96300;;;4.49277;100.0
31162;BME280;17796;49.296;-117.656;2024-02-04T11:34:41;96300;;;4.57788;100.0
31162;BME280;17796;49.296;-117.656;2024-02-04T11:49:53;96300;;;4.39718;100.0
31162;BME280;17796;49.296;-117.656;2024-02-04T12:04:58;96300;;;4.51532;100.0
31162;BME280;17796;49.296;-117.656;2024-02-04T12:20:03;96300;;;4.43211;100.0
31162;BME280;17796;49.296;-117.656;2024-02-04T12:35:07;96300;;;4.15106;100.0
31162;BME280;17796;49.296;-117.656;2024-02-04T12:50:16;96300;;;4.44005;100.0
31162;BME280;17796;49.296;-117.656;2024-02-04T13:05:23;96300;;;4.34732;100.0
31162;BME280;17796;49.296;-117.656;2024-02-04T13:20:27;96300;;;4.29111;100.0
31162;BME280;17796;49.296;-117.656;2024-02-04T13:35:31;96300;;;4.33334;100.0
31162;BME280;17796;49.296;-117.656;2024-02-04T13:50:37;96300;;;4.27205;100.0
31162;BME280;17796;49.296;-117.656;2024-02-04T14:05:44;96300;;;4.2314;100.0
31162;BME280;17796;49.296;-117.656;2024-02-04T14:36:11;96300;;;4.20409;100.0
31162;BME280;17796;49.296;-117.656;2024-02-04T14:51:16;96300;;;4.19742;100.0
31162;BME280;17796;49.296;-117.656;2024-02-04T15:06:22;96300;;;4.26634;100.0
31162;BME280;17796;49.296;-117.656;2024-02-04T15:21:26;96300;;;4.13518;100.0
31162;BME280;17796;49.296;-117.656;2024-02-04T15:36:31;96300;;;4.20155;100.0
31162;BME280;17796;49.296;-117.656;2024-02-04T15:51:36;96300;;;3.95384;100.0
31162;BME280;17796;49.296;-117.656;2024-02-04T16:06:43;96300;;;4.19869;100.0
31162;BME280;17796;49.296;-117.656;2024-02-04T16:21:57;96300;;;4.04244;100.0
31162;BME280;17796;49.296;-117.656;2024-02-04T16:37:04;96300;;;4.35272;100.0
31162;BME280;17796;49.296;-117.656;2024-02-04T16:52:10;96300;;;4.01863;100.0
31162;BME280;17796;49.296;-117.656;2024-02-04T17:07:15;96300;;;4.38543;100.0
31162;BME280;17796;49.296;-117.656;2024-02-04T17:22:20;96300;;;4.93071;100.0
31162;BME280;17796;49.296;-117.656;2024-02-04T17:37:27;96300;;;4.87863;100.0
31162;BME280;17796;49.296;-117.656;2024-02-04T17:52:33;96300;;;5.16318;100.0
31162;BME280;17796;49.296;-117.656;2024-02-04T18:07:38;96300;;;4.62234;100.0
31162;BME280;17796;49.296;-117.656;2024-02-04T18:22:43;96300;;;5.8428;100.0
31162;BME280;17796;49.296;-117.656;2024-02-04T18:37:49;96300;;;6.08639;100.0
31162;BME280;17796;49.296;-117.656;2024-02-04T18:53:10;96200;;;5.67163;100.0
31162;BME280;17796;49.296;-117.656;2024-02-04T19:08:15;96200;;;6.2744;100.0
31162;BME280;17796;49.296;-117.656;2024-02-04T19:23:23;96200;;;6.50529;100.0
31162;BME280;17796;49.296;-117.656;2024-02-04T19:38:28;96200;;;6.538;100.0
31162;BME280;17796;49.296;-117.656;2024-02-04T19:53:32;96200;;;6.56721;100.0
31162;BME280;17796;49.296;-117.656;2024-02-04T20:08:37;96200;;;5.90378;100.0
31162;BME280;17796;49.296;-117.656;2024-02-04T20:23:41;96200;;;6.8343;100.0
31162;BME280;17796;49.296;-117.656;2024-02-04T20:38:45;96100;;;6.87654;100.0
31162;BME280;17796;49.296;-117.656;2024-02-04T20:53:50;96100;;;6.51989;100.0
31162;BME280;17796;49.296;-117.656;2024-02-04T21:08:54;96100;;;7.38468;100.0
31162;BME280;17796;49.296;-117.656;2024-02-04T21:23:58;96100;;;7.21827;100.0
31162;BME280;17796;49.296;-117.656;2024-02-04T21:39:02;96100;;;7.00548;100.0
31162;BME280;17796;49.296;-117.656;2024-02-04T21:54:05;96100;;;6.76666;100.0
31162;BME280;17796;49.296;-117.656;2024-02-04T22:09:09;96100;;;6.5634;100.0
31162;BME280;17796;49.296;-117.656;2024-02-04T22:24:13;96100;;;6.85082;100.0
31162;BME280;17796;49.296;-117.656;2024-02-04T22:39:17;96100;;;7.53077;100.0
31162;BME280;17796;49.296;-117.656;2024-02-04T22:54:20;96000;;;7.49203;100.0
31162;BME280;17796;49.296;-117.656;2024-02-04T23:09:24;96000;;;7.71275;100.0
31162;BME280;17796;49.296;-117.656;2024-02-04T23:24:28;96000;;;7.00644;100.0
31162;BME280;17796;49.296;-117.656;2024-02-04T23:39:32;96000;;;6.64788;100.0
31162;BME280;17796;49.296;-117.656;2024-02-04T23:54:36;96000;;;5.98953;100.0
